Time;durP1;ratioP1;P1;durP2;ratioP2;P2;SDS_P1;SDS_P2;PMS_P1;PMS_P2;Temp;Humidity;BMP_temperature;BMP_pressure;BME280_temperature;BME280_humidity;BME280_pressure;Samples;Min_cycle;Max_cycle;Signal;HPM_P1;HPM_P2
2021/08/21 00:02:51;;;;;;;12.45;9.90;;;;;;;13.98;78.12;100520.66;1961049;89;32421;-63
2021/08/21 00:05:53;;;;;;;12.23;9.83;;;;;;;13.97;78.13;100529.69;1961662;89;34197;-63
2021/08/21 00:08:56;;;;;;;11.88;9.43;;;;;;;13.96;78.13;100526.61;1961900;89;30541;-63
2021/08/21 00:11:58;;;;;;;17.80;9.45;;;;;;;13.92;78.09;100529.97;1987568;89;27741;-63
2021/08/21 00:15:00;;;;;;;11.55;8.80;;;;;;;13.89;78.00;100527.45;1994564;88;29898;-63
2021/08/21 00:18:02;;;;;;;13.80;9.63;;;;;;;13.87;78.13;100525.83;1994729;88;32254;-63
2021/08/21 00:21:04;;;;;;;10.03;8.25;;;;;;;13.84;78.14;100524.16;1982897;89;33004;-63
2021/08/21 00:24:07;;;;;;;12.03;8.60;;;;;;;13.82;78.11;100526.96;1961711;90;30601;-63
2021/08/21 00:27:09;;;;;;;13.85;9.38;;;;;;;13.79;78.22;100529.83;1975062;89;28226;-63
2021/08/21 00:30:12;;;;;;;9.53;8.40;;;;;;;13.77;78.29;100530.40;1993350;87;29475;-63
2021/08/21 00:33:14;;;;;;;10.78;8.33;;;;;;;13.75;78.25;100530.11;1960588;89;32246;-63
2021/08/21 00:36:16;;;;;;;17.02;9.35;;;;;;;13.72;78.31;100528.48;1961661;89;32949;-64
2021/08/21 00:39:18;;;;;;;10.68;8.55;;;;;;;13.69;78.20;100535.39;1962046;89;29342;-64
2021/08/21 00:42:20;;;;;;;11.95;7.90;;;;;;;13.67;78.35;100533.26;1962177;89;27690;-64
2021/08/21 00:45:22;;;;;;;11.43;8.53;;;;;;;13.65;78.34;100538.72;1975332;89;28614;-64
2021/08/21 00:48:24;;;;;;;14.73;8.40;;;;;;;13.61;78.31;100536.30;1989094;88;31051;-64
2021/08/21 00:51:29;;;;;;;8.38;7.08;;;;;;;13.59;78.24;100532.83;1989260;88;33014;-64
2021/08/21 00:54:30;;;;;;;14.98;7.60;;;;;;;13.56;78.22;100542.45;1988953;88;29569;-64
2021/08/21 00:57:33;;;;;;;10.48;7.42;;;;;;;13.52;78.33;100542.63;1974522;89;27701;-64
2021/08/21 01:00:35;;;;;;;12.13;8.65;;;;;;;13.49;78.38;100537.88;1955847;91;29949;-64
2021/08/21 01:03:37;;;;;;;10.48;7.90;;;;;;;13.47;78.52;100539.33;1955943;91;33098;-63
2021/08/21 01:06:39;;;;;;;10.93;8.30;;;;;;;13.45;78.47;100538.55;1957592;89;32956;-63
2021/08/21 01:09:43;;;;;;;11.55;8.58;;;;;;;13.43;78.51;100536.91;1989174;88;28983;-63
2021/08/21 01:12:50;;;;;;;15.63;9.20;;;;;;;13.42;78.52;100539.20;1989393;88;27739;-63
2021/08/21 01:15:53;;;;;;;12.20;8.78;;;;;;;13.38;78.59;100534.45;1989132;88;29070;-63
2021/08/21 01:18:58;;;;;;;11.43;9.05;;;;;;;13.36;78.65;100530.98;1974050;88;31893;-64
2021/08/21 01:22:02;;;;;;;12.68;8.83;;;;;;;13.34;78.61;100540.47;1986820;88;32985;-63
2021/08/21 01:25:14;;;;;;;12.07;9.08;;;;;;;13.31;78.70;100532.60;1956046;89;28160;-63
2021/08/21 01:28:21;;;;;;;17.00;8.53;;;;;;;13.28;78.72;100534.58;1958887;88;28286;-64
2021/08/21 01:31:25;;;;;;;13.58;7.97;;;;;;;13.26;78.68;100540.52;2019067;88;29435;-63
2021/08/21 01:34:28;;;;;;;10.25;8.38;;;;;;;13.23;78.75;100540.23;2018462;88;31703;-63
2021/08/21 01:37:31;;;;;;;10.72;7.55;;;;;;;13.18;78.70;100530.20;2018805;88;33026;-63
2021/08/21 01:40:35;;;;;;;15.00;9.10;;;;;;;13.16;78.69;100534.80;2018414;88;30550;-63
2021/08/21 01:43:40;;;;;;;10.28;8.33;;;;;;;13.13;78.70;100534.50;2015415;88;27684;-63
2021/08/21 01:46:48;;;;;;;14.55;10.78;;;;;;;13.11;78.72;100530.17;1960764;89;28911;-63
2021/08/21 01:49:56;;;;;;;13.65;9.85;;;;;;;13.08;78.78;100531.19;1980585;87;31800;-63
2021/08/21 01:53:01;;;;;;;12.95;9.35;;;;;;;13.04;78.74;100532.34;1994524;89;32978;-64
2021/08/21 01:56:08;;;;;;;12.88;9.95;;;;;;;13.01;78.68;100534.70;1977916;88;29493;-64
2021/08/21 01:59:23;;;;;;;14.07;9.03;;;;;;;12.97;78.82;100524.22;2021054;88;27669;-64
2021/08/21 02:02:26;;;;;;;13.35;10.25;;;;;;;12.94;78.90;100525.27;2007359;88;28689;-63
2021/08/21 02:05:29;;;;;;;11.78;9.90;;;;;;;12.92;78.93;100525.83;2004243;87;31038;-63
2021/08/21 02:08:31;;;;;;;10.68;9.58;;;;;;;12.89;78.96;100525.99;1961069;89;33041;-64
2021/08/21 02:11:33;;;;;;;13.95;8.85;;;;;;;12.87;78.99;100531.92;1961917;89;29496;-63
2021/08/21 02:14:35;;;;;;;12.40;8.75;;;;;;;12.84;78.88;100529.41;1962338;89;27757;-63
2021/08/21 02:17:38;;;;;;;13.45;9.35;;;;;;;12.82;78.91;100529.98;1992416;89;28607;-64
2021/08/21 02:20:39;;;;;;;16.32;9.63;;;;;;;12.79;78.91;100531.01;1994798;89;33246;-63
2021/08/21 02:23:41;;;;;;;13.13;8.88;;;;;;;12.78;78.88;100531.11;1995032;88;33714;-63
2021/08/21 02:26:43;;;;;;;12.15;8.90;;;;;;;12.73;78.83;100529.53;1970688;88;30703;-63
2021/08/21 02:29:45;;;;;;;11.03;7.85;;;;;;;12.71;78.88;100535.47;1962306;89;27713;-63
2021/08/21 02:32:47;;;;;;;11.73;9.10;;;;;;;12.68;78.90;100532.09;1961910;89;29889;-63
2021/08/21 02:35:49;;;;;;;14.28;8.85;;;;;;;12.66;79.07;100537.52;1993044;89;31897;-63
2021/08/21 02:38:51;;;;;;;14.23;10.23;;;;;;;12.65;79.16;100533.59;1995207;89;33760;-63
2021/08/21 02:41:53;;;;;;;16.17;9.60;;;;;;;12.64;79.10;100535.42;1995144;89;30467;-63
2021/08/21 02:44:56;;;;;;;13.78;9.68;;;;;;;12.61;79.06;100539.13;1994937;88;27785;-63
2021/08/21 02:47:58;;;;;;;10.58;8.95;;;;;;;12.60;79.13;100540.57;1994759;89;28694;-63
2021/08/21 02:51:01;;;;;;;14.55;11.70;;;;;;;12.57;79.21;100538.93;1995240;88;32056;-63
2021/08/21 02:54:03;;;;;;;15.50;9.73;;;;;;;12.56;79.30;100543.91;1994878;89;33827;-63
2021/08/21 02:57:05;;;;;;;16.25;9.83;;;;;;;12.56;79.30;100538.53;1993775;88;29980;-63
2021/08/21 03:00:09;;;;;;;13.70;10.00;;;;;;;12.54;79.28;100544.46;1962223;89;27648;-64
2021/08/21 03:03:12;;;;;;;13.40;9.23;;;;;;;12.53;79.30;100544.52;1962252;89;29517;-63
2021/08/21 03:06:14;;;;;;;11.95;9.50;;;;;;;12.52;79.29;100544.12;1962157;90;31450;-63
2021/08/21 03:09:16;;;;;;;19.82;10.40;;;;;;;12.49;79.23;100542.48;1982921;88;33029;-63
2021/08/21 03:12:19;;;;;;;13.65;9.80;;;;;;;12.49;79.36;100552.38;2021531;88;28922;-63
2021/08/21 03:15:24;;;;;;;16.70;9.78;;;;;;;12.48;79.29;100558.70;2022213;88;27672;-63
2021/08/21 03:18:26;;;;;;;17.75;10.60;;;;;;;12.46;79.55;100556.08;2022597;88;28661;-63
2021/08/21 03:21:28;;;;;;;17.48;9.55;;;;;;;12.44;79.62;100558.86;2022477;88;31903;-64
2021/08/21 03:24:30;;;;;;;15.40;8.88;;;;;;;12.44;79.65;100556.63;1992195;87;33413;-63
2021/08/21 03:27:35;;;;;;;15.23;10.85;;;;;;;12.44;79.72;100561.55;1995284;88;29375;-62
2021/08/21 03:30:39;;;;;;;;;;;;;;;12.46;79.83;100558.31;1997810;88;28223;-63
2021/08/21 03:33:49;;;;;;;13.32;10.08;;;;;;;12.47;79.77;100563.20;1994268;88;28661;-63
2021/08/21 03:36:53;;;;;;;13.50;9.70;;;;;;;12.48;79.79;100570.80;1995200;89;31288;-63
2021/08/21 03:39:55;;;;;;;16.77;9.08;;;;;;;12.48;79.85;100570.80;1995045;88;32978;-63
2021/08/21 03:42:58;;;;;;;12.13;9.43;;;;;;;12.50;79.86;100570.21;1994980;88;30008;-63
2021/08/21 03:46:01;;;;;;;13.30;9.00;;;;;;;12.52;79.92;100569.20;1995200;88;27721;-63
2021/08/21 03:49:03;;;;;;;12.15;8.95;;;;;;;12.54;79.96;100574.02;1994781;88;29924;-63
2021/08/21 03:52:07;;;;;;;11.55;8.80;;;;;;;12.57;79.94;100579.70;1979491;89;31105;-63
2021/08/21 03:55:10;;;;;;;10.32;8.50;;;;;;;12.61;79.98;100582.13;1962175;90;33947;-62
2021/08/21 03:58:12;;;;;;;12.55;8.95;;;;;;;12.66;79.93;100582.37;1961913;90;29465;-62
2021/08/21 04:01:14;;;;;;;10.35;8.00;;;;;;;12.68;79.78;100582.67;1981862;88;27769;-63
2021/08/21 04:04:16;;;;;;;12.85;7.60;;;;;;;12.71;79.76;100594.60;2021945;88;29439;-63
2021/08/21 04:07:20;;;;;;;13.18;7.83;;;;;;;12.72;79.62;100592.31;2011163;88;31069;-62
2021/08/21 04:10:22;;;;;;;11.20;7.33;;;;;;;12.75;79.61;100597.53;1972934;89;32592;-62
2021/08/21 04:13:24;;;;;;;9.93;6.85;;;;;;;12.79;79.71;100594.19;1999434;88;30483;-62
2021/08/21 04:16:26;;;;;;;18.00;6.97;;;;;;;12.84;79.72;100593.47;2022762;88;27708;-62
2021/08/21 04:19:28;;;;;;;19.35;6.47;;;;;;;12.91;79.78;100595.34;2022066;88;30261;-62
2021/08/21 04:22:30;;;;;;;19.87;9.43;;;;;;;12.98;79.79;100599.91;2021860;88;32394;-62
2021/08/21 04:25:32;;;;;;;15.45;7.45;;;;;;;13.05;79.82;100595.45;2021436;88;32794;-62
2021/08/21 04:28:35;;;;;;;18.87;9.80;;;;;;;13.13;79.87;100596.37;2019523;87;29376;-62
2021/08/21 04:31:37;;;;;;;15.85;10.05;;;;;;;13.21;79.82;100600.86;1995011;88;27756;-62
2021/08/21 04:34:39;;;;;;;15.72;9.33;;;;;;;13.30;79.79;100600.82;1992048;87;29158;-64
2021/08/21 04:37:41;;;;;;;17.98;10.98;;;;;;;13.39;79.78;100602.13;1960591;89;32003;-64
2021/08/21 04:40:46;;;;;;;16.77;11.48;;;;;;;13.48;79.79;100604.31;1971384;88;33957;-65
2021/08/21 04:43:48;;;;;;;16.07;12.10;;;;;;;13.58;79.73;100606.00;2000719;88;29981;-64
2021/08/21 04:46:52;;;;;;;15.72;11.68;;;;;;;13.68;79.75;100612.58;2014008;87;28265;-63
2021/08/21 04:49:56;;;;;;;14.73;11.80;;;;;;;13.80;79.78;100612.36;2021791;87;30787;-63
2021/08/21 04:52:58;;;;;;;17.65;11.57;;;;;;;13.93;79.69;100610.28;2022260;88;31152;-63
2021/08/21 04:56:01;;;;;;;16.85;12.50;;;;;;;14.08;79.74;100610.72;2022566;87;33319;-62
2021/08/21 04:59:04;;;;;;;14.50;12.07;;;;;;;14.25;79.71;100607.03;2022172;87;29378;-62
2021/08/21 05:02:07;;;;;;;14.83;12.20;;;;;;;14.46;79.71;100616.59;2022733;88;27602;-63
2021/08/21 05:05:10;;;;;;;19.25;11.60;;;;;;;14.72;79.72;100613.68;1995953;87;28670;-63
2021/08/21 05:08:12;;;;;;;12.03;10.75;;;;;;;15.06;79.68;100613.41;1962063;89;31695;-63
2021/08/21 05:11:14;;;;;;;12.15;9.28;;;;;;;15.40;79.50;100618.84;2018376;88;33010;-63
2021/08/21 05:14:18;;;;;;;11.95;9.38;;;;;;;15.77;79.23;100615.08;2022237;87;30419;-63
2021/08/21 05:17:20;;;;;;;13.30;10.82;;;;;;;16.13;79.08;100611.38;2021497;88;27697;-63
2021/08/21 05:20:43;;;;;;;13.65;11.83;;;;;;;16.44;78.41;100613.81;2022361;88;28819;-63
2021/08/21 05:23:45;;;;;;;15.63;12.60;;;;;;;16.66;78.02;100612.67;2021932;88;32196;-63
2021/08/21 05:26:48;;;;;;;15.50;12.82;;;;;;;16.79;77.64;100613.19;2022001;88;32964;-63
2021/08/21 05:29:53;;;;;;;16.93;12.80;;;;;;;16.90;77.41;100611.92;2021388;88;30277;-64
2021/08/21 05:32:56;;;;;;;21.05;14.13;;;;;;;17.07;77.24;100610.73;2022547;88;27762;-64
2021/08/21 05:35:58;;;;;;;16.80;13.68;;;;;;;17.26;77.22;100619.76;1980174;87;29653;-63
2021/08/21 05:39:02;;;;;;;19.87;14.45;;;;;;;17.53;76.86;100620.05;1961762;90;31112;-63
2021/08/21 05:42:04;;;;;;;19.10;13.48;;;;;;;17.80;76.48;100623.02;1961642;89;33019;-63
2021/08/21 05:45:08;;;;;;;16.80;13.08;;;;;;;18.00;76.13;100628.35;1961829;90;30136;-65
2021/08/21 05:48:10;;;;;;;18.73;13.22;;;;;;;18.12;75.98;100633.30;1957928;89;27736;-65
2021/08/21 05:51:12;;;;;;;18.07;13.68;;;;;;;18.14;75.28;100630.50;1955986;89;29942;-63
2021/08/21 05:54:15;;;;;;;15.23;11.68;;;;;;;18.10;74.79;100643.43;1956279;89;31100;-62
2021/08/21 05:57:18;;;;;;;14.50;13.00;;;;;;;18.16;74.60;100650.23;1955991;89;33810;-62
2021/08/21 06:00:19;;;;;;;14.18;12.18;;;;;;;18.26;74.15;100649.04;1956043;89;30557;-62
2021/08/21 06:03:21;;;;;;;16.70;13.03;;;;;;;18.43;74.16;100648.61;1956144;89;27716;-63
2021/08/21 06:06:24;;;;;;;13.08;11.25;;;;;;;18.69;74.38;100651.13;1981994;89;29499;-63
2021/08/21 06:09:26;;;;;;;13.55;11.65;;;;;;;19.01;74.33;100649.61;1989138;88;31460;-62
2021/08/21 06:12:27;;;;;;;10.98;9.53;;;;;;;19.32;74.10;100653.92;1988350;88;34205;-63
2021/08/21 06:15:29;;;;;;;13.00;10.25;;;;;;;19.62;72.99;100651.89;1979831;89;29735;-62
2021/08/21 06:18:32;;;;;;;14.00;11.28;;;;;;;19.89;72.47;100651.48;2011458;88;27791;-62
2021/08/21 06:21:34;;;;;;;15.35;10.38;;;;;;;20.23;72.04;100654.59;2017721;88;29529;-62
2021/08/21 06:24:36;;;;;;;12.07;10.80;;;;;;;20.57;71.20;100653.06;2018555;88;32261;-62
2021/08/21 06:27:38;;;;;;;13.35;10.10;;;;;;;20.89;70.56;100657.59;2018861;88;34137;-62
2021/08/21 06:30:40;;;;;;;13.58;11.28;;;;;;;21.18;69.49;100660.95;2018915;88;29453;-63
2021/08/21 06:33:42;;;;;;;14.38;9.60;;;;;;;21.56;69.53;100661.22;2018637;87;28150;-62
2021/08/21 06:36:45;;;;;;;11.97;9.58;;;;;;;22.01;69.19;100659.40;1970514;88;29548;-63
2021/08/21 06:39:47;;;;;;;14.87;10.15;;;;;;;22.45;68.42;100666.35;1988755;89;32289;-62
2021/08/21 06:42:49;;;;;;;11.25;10.10;;;;;;;22.83;67.20;100664.58;1988712;89;34426;-63
2021/08/21 06:45:53;;;;;;;15.28;10.13;;;;;;;23.27;66.84;100665.89;1988731;89;30168;-63
2021/08/21 06:48:56;;;;;;;11.18;10.00;;;;;;;23.76;65.94;100654.67;1993853;88;27670;-62
2021/08/21 06:51:59;;;;;;;11.90;9.70;;;;;;;24.20;65.26;100662.17;1994753;89;28236;-62
2021/08/21 06:55:03;;;;;;;11.22;9.35;;;;;;;24.58;63.76;100656.01;1995128;88;31135;-62
2021/08/21 06:58:07;;;;;;;14.05;9.33;;;;;;;24.88;62.70;100654.72;1995049;88;32974;-63
2021/08/21 07:01:14;;;;;;;10.25;9.23;;;;;;;25.27;62.62;100652.02;1995042;89;29344;-63
2021/08/21 07:04:17;;;;;;;10.60;9.00;;;;;;;25.79;62.32;100652.93;1990144;89;27737;-63
2021/08/21 07:07:19;;;;;;;15.63;10.60;;;;;;;26.19;61.21;100658.16;1961786;90;28611;-63
2021/08/21 07:10:21;;;;;;;10.25;9.18;;;;;;;26.51;59.93;100659.73;1962150;90;32225;-63
2021/08/21 07:13:24;;;;;;;14.98;9.93;;;;;;;26.76;59.51;100660.57;1962013;89;33507;-63
2021/08/21 07:16:26;;;;;;;14.13;9.55;;;;;;;27.09;58.42;100661.03;1962117;90;29760;-63
2021/08/21 07:19:28;;;;;;;12.50;9.00;;;;;;;27.35;57.64;100664.06;1961832;90;27763;-63
2021/08/21 07:22:30;;;;;;;9.35;8.45;;;;;;;27.64;57.35;100656.55;2004089;88;28818;-63
2021/08/21 07:25:31;;;;;;;10.80;9.58;;;;;;;27.96;56.37;100657.92;2021168;88;31874;-63
2021/08/21 07:28:34;;;;;;;11.63;8.88;;;;;;;28.10;54.25;100661.30;2022378;88;32962;-64
2021/08/21 07:31:36;;;;;;;11.65;8.95;;;;;;;28.15;53.94;100662.12;2022439;88;29517;-63
2021/08/21 07:34:38;;;;;;;9.93;8.93;;;;;;;28.26;53.70;100662.22;1992087;87;27769;-63
2021/08/21 07:37:40;;;;;;;9.33;8.43;;;;;;;28.46;53.31;100671.70;1990393;88;29567;-63
2021/08/21 07:40:45;;;;;;;9.58;8.58;;;;;;;28.48;51.61;100673.76;2022115;88;31089;-64
2021/08/21 07:43:47;;;;;;;12.50;8.83;;;;;;;28.61;51.90;100674.52;1990784;88;33672;-63
2021/08/21 07:46:48;;;;;;;8.98;8.08;;;;;;;28.78;50.71;100675.23;1961409;89;29670;-64
2021/08/21 07:49:50;;;;;;;9.15;8.28;;;;;;;28.88;50.83;100676.86;1962181;90;27791;-63
2021/08/21 07:52:52;;;;;;;10.35;7.87;;;;;;;29.06;50.64;100677.36;1961694;90;28838;-63
2021/08/21 07:55:54;;;;;;;12.70;8.43;;;;;;;29.28;49.71;100684.37;1962044;89;31199;-64
2021/08/21 07:58:55;;;;;;;9.15;8.25;;;;;;;29.41;49.26;100681.82;1962025;89;33775;-64
2021/08/21 08:01:57;;;;;;;8.78;7.87;;;;;;;29.58;48.91;100680.23;1961940;89;29332;-63
2021/08/21 08:05:00;;;;;;;12.40;8.45;;;;;;;29.73;47.14;100680.22;1974323;89;27725;-63
2021/08/21 08:08:02;;;;;;;9.05;8.15;;;;;;;29.80;47.37;100677.53;1994819;88;30132;-63
2021/08/21 08:11:04;;;;;;;8.00;7.20;;;;;;;29.95;47.57;100681.14;1995262;89;31438;-64
2021/08/21 08:14:06;;;;;;;8.33;7.50;;;;;;;30.10;47.17;100681.11;1994994;89;33045;-64
2021/08/21 08:17:08;;;;;;;7.62;6.92;;;;;;;30.25;46.02;100674.66;1994857;88;29393;-64
2021/08/21 08:20:11;;;;;;;9.93;7.28;;;;;;;30.30;46.13;100677.67;1995094;88;27700;-64
2021/08/21 08:23:13;;;;;;;8.30;6.42;;;;;;;30.46;45.87;100681.55;1995091;89;28879;-64
2021/08/21 08:26:15;;;;;;;8.28;7.47;;;;;;;30.64;46.08;100684.94;1995064;88;31036;-64
2021/08/21 08:29:17;;;;;;;10.18;7.67;;;;;;;30.79;44.78;100684.31;1995093;89;32996;-64
2021/08/21 08:32:19;;;;;;;7.45;6.58;;;;;;;30.78;44.12;100685.38;1994879;89;29532;-64
2021/08/21 08:35:21;;;;;;;7.40;6.15;;;;;;;30.83;44.56;100684.77;1976135;88;27719;-64
2021/08/21 08:38:23;;;;;;;10.30;7.70;;;;;;;30.93;44.39;100690.81;1962371;89;29355;-63
2021/08/21 08:41:25;;;;;;;7.53;6.78;;;;;;;30.86;43.22;100693.50;1962096;89;31039;-64
2021/08/21 08:44:28;;;;;;;9.13;6.67;;;;;;;30.90;43.55;100692.05;1961970;89;33133;-62
2021/08/21 08:47:30;;;;;;;9.68;6.65;;;;;;;30.87;43.09;100691.61;1961805;89;29342;-62
2021/08/21 08:50:32;;;;;;;8.60;7.70;;;;;;;30.80;43.05;100692.95;1962374;90;27693;-64
2021/08/21 08:53:35;;;;;;;9.58;7.12;;;;;;;30.75;42.66;100692.17;1976751;88;29985;-62
2021/08/21 08:56:39;;;;;;;7.65;6.87;;;;;;;30.56;42.40;100681.25;2021537;88;27831;-62
2021/08/21 08:59:41;;;;;;;8.80;7.97;;;;;;;30.33;42.04;100683.34;2022392;88;33739;-62
2021/08/21 09:02:50;;;;;;;10.15;6.87;;;;;;;29.91;41.63;100684.47;2022307;88;30380;-61
2021/08/21 09:05:53;;;;;;;8.38;6.95;;;;;;;29.54;42.20;100681.16;1979019;88;27739;-62
2021/08/21 09:09:16;;;;;;;10.23;8.28;;;;;;;29.19;42.84;100684.98;1961208;89;29571;-61
2021/08/21 09:12:23;;;;;;;9.30;8.40;;;;;;;29.08;42.85;100684.08;1961659;89;31131;-62
2021/08/21 09:15:29;;;;;;;8.73;7.78;;;;;;;29.03;43.01;100682.41;1960534;88;34363;-62
2021/08/21 09:18:37;;;;;;;7.80;7.03;;;;;;;28.89;43.24;100683.58;1962604;89;29519;-63
2021/08/21 09:21:39;;;;;;;10.93;8.13;;;;;;;28.85;43.44;100686.91;1962071;89;27715;-62
2021/08/21 09:24:43;;;;;;;10.48;7.70;;;;;;;28.84;42.67;100686.58;1953643;90;29524;-62
2021/08/21 09:27:48;;;;;;;9.95;8.28;;;;;;;28.73;42.68;100687.34;1961988;89;31878;-62
2021/08/21 09:31:01;;;;;;;9.30;8.40;;;;;;;28.57;42.39;100685.58;1952772;90;27812;-64
2021/08/21 09:34:09;;;;;;;10.08;8.78;;;;;;;28.44;42.69;100693.61;1962661;89;30765;-65
2021/08/21 09:37:11;;;;;;;12.40;8.85;;;;;;;28.31;42.46;100695.06;1994745;88;27712;-61
2021/08/21 09:40:33;;;;;;;9.25;7.55;;;;;;;28.19;42.06;100693.78;1994576;89;29516;-62
2021/08/21 09:43:39;;;;;;;11.65;8.80;;;;;;;27.94;42.27;100693.05;1994893;88;31868;-63
2021/08/21 09:46:42;;;;;;;14.63;7.65;;;;;;;27.78;42.51;100689.88;1994871;88;32985;-62
2021/08/21 09:49:44;;;;;;;7.83;6.87;;;;;;;27.66;42.51;100697.14;1994672;88;29349;-62
2021/08/21 09:52:48;;;;;;;11.80;8.23;;;;;;;27.57;42.78;100690.81;1995172;88;27666;-62
2021/08/21 09:55:50;;;;;;;7.90;6.90;;;;;;;27.52;43.01;100696.02;1994841;89;28655;-63
2021/08/21 09:58:52;;;;;;;7.58;5.90;;;;;;;27.38;42.89;100693.98;1994815;88;31052;-63
2021/08/21 10:01:54;;;;;;;10.35;7.45;;;;;;;27.28;43.04;100691.43;1994902;88;33145;-62
2021/08/21 10:04:56;;;;;;;7.25;6.50;;;;;;;27.36;43.87;100688.64;1979365;88;30147;-63
2021/08/21 10:08:05;;;;;;;13.08;5.78;;;;;;;27.49;44.19;100687.23;1961697;90;27747;-63
2021/08/21 10:11:06;;;;;;;6.60;5.10;;;;;;;27.41;42.88;100689.47;1961606;89;28773;-62
2021/08/21 10:14:08;;;;;;;6.60;5.40;;;;;;;27.09;42.64;100681.16;1966717;89;31953;-62
2021/08/21 10:17:13;;;;;;;6.20;5.20;;;;;;;26.96;43.13;100681.70;1973823;89;34170;-64
2021/08/21 10:20:14;;;;;;;;;;;;;;;26.88;43.34;100677.60;1964086;89;30547;-62
2021/08/21 10:23:23;;;;;;;4.50;4.10;;;;;;;26.75;43.43;100681.34;1961840;89;27649;-61
2021/08/21 10:26:31;;;;;;;5.80;4.35;;;;;;;26.71;43.82;100675.88;1992004;89;28652;-62
2021/08/21 10:29:34;;;;;;;5.42;4.92;;;;;;;26.75;43.44;100678.59;1994860;87;31502;-61
2021/08/21 10:32:46;;;;;;;5.42;4.92;;;;;;;26.77;43.09;100675.16;1994382;88;34435;-62
2021/08/21 10:35:54;;;;;;;7.25;4.70;;;;;;;26.88;43.41;100676.73;1992250;87;29370;-62
2021/08/21 10:39:18;;;;;;;6.08;4.97;;;;;;;26.86;42.83;100681.03;1995043;89;27698;-63
2021/08/21 10:42:30;;;;;;;6.50;5.47;;;;;;;26.80;43.15;100674.34;1995165;88;29540;-61
2021/08/21 10:45:47;;;;;;;5.50;4.90;;;;;;;26.88;43.12;100673.48;1982267;89;31042;-62
2021/08/21 10:48:52;;;;;;;5.15;4.20;;;;;;;26.88;42.90;100672.10;1962005;89;33217;-62
2021/08/21 10:51:54;;;;;;;5.33;4.53;;;;;;;26.81;42.91;100679.31;1962122;89;29437;-62
2021/08/21 10:54:56;;;;;;;5.65;4.58;;;;;;;26.76;42.75;100671.56;2004271;88;27765;-62
2021/08/21 10:58:09;;;;;;;6.70;4.15;;;;;;;26.70;42.50;100675.00;1952343;90;43991;-62
2021/08/21 11:01:13;;;;;;;5.62;5.03;;;;;;;26.62;42.85;100676.39;1961823;89;32316;-62
2021/08/21 11:04:20;;;;;;;5.87;4.67;;;;;;;26.55;42.29;100672.10;1951899;90;33383;-63
2021/08/21 11:07:41;;;;;;;4.95;4.17;;;;;;;26.51;42.80;100663.85;1958744;89;29341;-62
2021/08/21 11:10:43;;;;;;;5.15;3.50;;;;;;;26.54;42.98;100667.11;1971435;89;28023;-62
2021/08/21 11:14:05;;;;;;;4.80;4.35;;;;;;;26.72;43.61;100666.59;1994974;88;29481;-62
2021/08/21 11:17:11;;;;;;;5.45;3.77;;;;;;;26.87;42.55;100664.02;1995008;88;31912;-62
2021/08/21 11:20:33;;;;;;;5.62;4.97;;;;;;;26.91;42.67;100666.77;1995004;88;33790;-62
2021/08/21 11:23:52;;;;;;;5.08;4.10;;;;;;;26.83;42.13;100671.76;1994634;88;30547;-62
2021/08/21 11:27:28;;;;;;;6.50;3.90;;;;;;;26.78;42.50;100669.50;1995087;88;27839;-62
2021/08/21 11:30:31;;;;;;;4.87;3.92;;;;;;;26.78;42.50;100674.13;1995203;88;29454;-63
2021/08/21 11:33:34;;;;;;;4.62;4.05;;;;;;;26.86;42.63;100670.05;1981453;89;32223;-62
2021/08/21 11:36:36;;;;;;;5.50;4.37;;;;;;;26.97;42.68;100667.45;1962230;89;32425;-63
2021/08/21 11:39:38;;;;;;;4.67;3.90;;;;;;;27.10;42.53;100662.25;1961709;89;30522;-61
2021/08/21 11:42:52;;;;;;;5.05;4.10;;;;;;;27.25;42.87;100667.86;1962128;89;27673;-61
2021/08/21 11:45:55;;;;;;;;;;;;;;;27.49;42.71;100661.09;1965491;90;28995;-62
2021/08/21 11:49:09;;;;;;;4.85;4.10;;;;;;;27.56;42.41;100657.98;1976211;88;31065;-62
2021/08/21 11:52:11;;;;;;;5.65;3.92;;;;;;;27.63;42.37;100662.25;2018847;88;33235;-62
2021/08/21 11:55:15;;;;;;;4.50;4.10;;;;;;;27.60;41.73;100653.84;1972209;87;30640;-62
2021/08/21 11:58:17;;;;;;;4.35;3.52;;;;;;;27.62;42.32;100654.52;1956978;89;27745;-62
2021/08/21 12:01:22;;;;;;;6.17;4.10;;;;;;;27.74;42.92;100651.70;1956531;91;29030;-62
2021/08/21 12:04:24;;;;;;;4.75;4.35;;;;;;;27.74;41.96;100652.20;1967521;89;31056;-61
2021/08/21 12:07:33;;;;;;;4.95;4.45;;;;;;;27.74;41.77;100653.58;1972067;88;34092;-62
2021/08/21 12:10:45;;;;;;;5.60;4.25;;;;;;;27.75;41.60;100652.03;1956373;90;29638;-64
2021/08/21 12:13:47;;;;;;;10.88;9.50;;;;;;;27.76;41.47;100648.75;1960064;89;27780;-62
2021/08/21 12:16:52;;;;;;;6.15;4.90;;;;;;;27.71;41.53;100655.34;1989604;88;30078;-62
2021/08/21 12:19:54;;;;;;;4.80;4.30;;;;;;;27.58;41.47;100652.62;1989084;88;31275;-63
2021/08/21 12:22:56;;;;;;;4.33;3.92;;;;;;;27.53;42.29;100645.45;1987686;89;33780;-63
2021/08/21 12:26:00;;;;;;;5.83;4.25;;;;;;;27.52;42.13;100645.11;1988807;88;29627;-62
2021/08/21 12:29:05;;;;;;;4.78;3.92;;;;;;;27.55;42.23;100645.25;1983097;89;27650;-64
2021/08/21 12:32:09;;;;;;;4.30;3.90;;;;;;;27.57;42.36;100644.56;1956354;89;28655;-63
2021/08/21 12:35:26;;;;;;;7.87;4.05;;;;;;;27.50;42.22;100644.42;1943479;91;31068;-63
2021/08/21 12:38:40;;;;;;;4.87;3.92;;;;;;;27.46;41.82;100642.22;1947116;91;32965;-63
2021/08/21 12:42:06;;;;;;;4.33;3.80;;;;;;;27.36;41.64;100652.02;1956276;89;27687;-63
2021/08/21 12:45:24;;;;;;;4.47;4.08;;;;;;;27.24;41.33;100648.27;1956542;91;27690;-62
2021/08/21 12:48:26;;;;;;;4.15;3.75;;;;;;;27.23;41.42;100644.33;1955513;88;28829;-62
2021/08/21 12:51:42;;;;;;;4.50;4.10;;;;;;;27.13;41.78;100637.66;1961847;89;33148;-62
2021/08/21 12:54:45;;;;;;;4.62;3.90;;;;;;;27.26;42.17;100637.10;1988749;87;33089;-64
2021/08/21 12:57:47;;;;;;;5.97;4.40;;;;;;;27.37;41.94;100631.73;1988119;88;30115;-64
2021/08/21 13:00:52;;;;;;;3.80;3.45;;;;;;;27.38;41.54;100633.45;1989250;89;28195;-64
2021/08/21 13:04:12;;;;;;;4.08;3.67;;;;;;;27.49;41.50;100633.58;1979094;89;29106;-63
2021/08/21 13:07:14;;;;;;;6.58;4.30;;;;;;;27.50;41.16;100629.28;1989052;88;31430;-63
2021/08/21 13:10:22;;;;;;;5.83;4.75;;;;;;;27.51;41.34;100635.13;2008614;88;34331;-63
2021/08/21 13:13:24;;;;;;;5.83;5.22;;;;;;;27.47;41.52;100637.05;1974501;87;29340;-63
2021/08/21 13:16:30;;;;;;;7.22;5.00;;;;;;;27.26;41.58;100641.23;1956154;91;27744;-63
2021/08/21 13:19:34;;;;;;;6.80;5.15;;;;;;;26.99;41.07;100640.60;1947449;91;29957;-63
2021/08/21 13:22:37;;;;;;;5.97;4.58;;;;;;;26.74;41.53;100634.27;1956100;89;31940;-62
2021/08/21 13:25:41;;;;;;;5.80;5.17;;;;;;;26.53;41.94;100633.78;1956059;90;33605;-62
2021/08/21 13:28:43;;;;;;;7.20;6.50;;;;;;;26.51;42.28;100636.38;1981322;89;29387;-64
2021/08/21 13:31:45;;;;;;;4.80;4.37;;;;;;;26.50;42.19;100625.88;1989032;89;27705;-63
2021/08/21 13:34:47;;;;;;;5.37;4.85;;;;;;;26.51;42.50;100628.13;1989068;89;29794;-62
2021/08/21 13:37:49;;;;;;;5.28;4.78;;;;;;;26.44;42.85;100614.73;1988915;89;32077;-62
2021/08/21 13:40:53;;;;;;;5.60;5.00;;;;;;;26.37;42.85;100616.81;1963678;89;34401;-62
2021/08/21 13:43:54;;;;;;;6.97;5.10;;;;;;;26.33;43.11;100615.44;1956132;91;30106;-62
2021/08/21 13:46:59;;;;;;;6.20;5.33;;;;;;;26.21;43.24;100616.28;2012318;88;27707;-62
2021/08/21 13:50:01;;;;;;;;;;;;;;;25.94;43.23;100611.44;1990856;88;29732;-61
2021/08/21 13:53:04;;;;;;;6.25;5.10;;;;;;;25.65;43.82;100611.05;1969416;88;31699;-62
2021/08/21 13:56:06;;;;;;;6.20;5.60;;;;;;;25.44;44.59;100615.09;2018795;88;33140;-62
2021/08/21 13:59:09;;;;;;;6.65;5.72;;;;;;;25.14;44.72;100612.70;2008871;87;29503;-61
2021/08/21 14:02:23;;;;;;;6.90;5.83;;;;;;;24.89;44.83;100604.87;1956729;91;27723;-62
2021/08/21 14:05:23;;;;;;;6.60;6.00;;;;;;;24.70;45.30;100601.33;1947847;91;27679;-62
2021/08/21 14:08:26;;;;;;;10.35;6.45;;;;;;;24.59;45.63;100601.58;1956182;91;31999;-62
2021/08/21 14:11:29;;;;;;;6.05;5.10;;;;;;;24.49;46.01;100602.20;1982537;89;34803;-63